createdAt,value
2023-05-24T00:01:57.275Z,86.30
2023-05-24T00:04:30.128Z,86.50
2023-05-24T00:07:03.445Z,86.50
2023-05-24T00:09:32.144Z,86.60
2023-05-24T00:12:00.495Z,86.70
2023-05-24T00:14:28.733Z,86.70
2023-05-24T00:16:57.471Z,86.70
2023-05-24T00:19:25.899Z,86.60
2023-05-24T00:21:55.840Z,86.50
2023-05-24T00:24:25.642Z,86.60
2023-05-24T00:26:54.361Z,86.40
2023-05-24T00:29:23.005Z,86.30
2023-05-24T00:31:51.254Z,86.40
2023-05-24T00:34:20.026Z,86.20
2023-05-24T00:36:48.270Z,86.40
2023-05-24T00:39:17.324Z,86.50
2023-05-24T00:41:46.868Z,86.40
2023-05-24T00:44:15.322Z,86.40
2023-05-24T00:46:43.653Z,86.50
2023-05-24T00:49:12.302Z,86.50
2023-05-24T00:51:40.543Z,86.60
2023-05-24T00:54:09.480Z,86.60
2023-05-24T00:56:37.814Z,86.70
2023-05-24T00:59:07.975Z,86.80
2023-05-24T01:01:37.366Z,86.90
2023-05-24T01:04:07.524Z,86.80
2023-05-24T01:06:44.927Z,86.80
2023-05-24T01:09:23.889Z,86.90
2023-05-24T01:12:09.009Z,87.10
2023-05-24T01:14:49.112Z,87.20
2023-05-24T01:17:26.616Z,87.20
2023-05-24T01:20:00.019Z,87.50
2023-05-24T01:22:53.386Z,87.60
2023-05-24T01:25:42.487Z,87.80
2023-05-24T01:28:14.192Z,87.90
2023-05-24T01:30:43.831Z,88.00
2023-05-24T01:33:13.076Z,87.70
2023-05-24T01:35:42.654Z,87.70
2023-05-24T01:38:12.211Z,87.60
2023-05-24T01:40:42.168Z,87.40
2023-05-24T01:43:18.940Z,87.20
2023-05-24T01:45:56.034Z,87.20
2023-05-24T01:48:35.035Z,87.20
2023-05-24T01:51:07.842Z,87.00
2023-05-24T01:53:43.205Z,87.00
2023-05-24T01:56:13.381Z,86.80
2023-05-24T01:58:46.007Z,86.80
2023-05-24T02:01:16.007Z,86.40
2023-05-24T02:03:44.676Z,86.60
2023-05-24T02:06:13.261Z,86.60
2023-05-24T02:08:41.714Z,86.50
2023-05-24T02:11:10.305Z,86.50
2023-05-24T02:13:40.084Z,86.40
2023-05-24T02:16:10.808Z,86.40
2023-05-24T02:18:40.244Z,86.40
2023-05-24T02:21:09.055Z,86.30
2023-05-24T02:23:38.863Z,86.30
2023-05-24T02:26:07.594Z,86.00
2023-05-24T02:28:36.585Z,86.30
2023-05-24T02:31:06.237Z,86.20
2023-05-24T02:33:36.314Z,86.00
2023-05-24T02:36:05.161Z,86.20
2023-05-24T02:38:33.837Z,86.10
2023-05-24T02:41:02.463Z,86.10
2023-05-24T02:43:30.877Z,86.00
2023-05-24T02:45:59.503Z,86.00
2023-05-24T02:48:28.098Z,85.90
2023-05-24T02:50:58.071Z,86.00
2023-05-24T02:53:26.799Z,85.90
2023-05-24T02:55:55.322Z,85.80
2023-05-24T02:58:24.072Z,86.50
2023-05-24T03:00:52.875Z,86.00
2023-05-24T03:03:23.048Z,85.90
2023-05-24T03:05:51.615Z,85.90
2023-05-24T03:08:21.187Z,85.90
2023-05-24T03:10:49.950Z,85.90
2023-05-24T03:13:18.455Z,85.90
2023-05-24T03:15:47.427Z,85.90
2023-05-24T03:18:15.784Z,85.80
2023-05-24T03:20:46.163Z,85.90
2023-05-24T03:23:15.015Z,85.80
2023-05-24T03:25:47.142Z,85.80
2023-05-24T03:28:15.860Z,85.80
2023-05-24T03:30:45.759Z,85.80
2023-05-24T03:33:14.049Z,85.80
2023-05-24T03:35:42.842Z,85.60
2023-05-24T03:38:11.628Z,85.80
2023-05-24T03:40:45.539Z,85.80
2023-05-24T03:43:18.546Z,85.90
2023-05-24T03:45:56.278Z,86.00
2023-05-24T03:48:24.590Z,86.70
2023-05-24T03:50:53.905Z,85.90
2023-05-24T03:53:23.447Z,86.00
2023-05-24T03:55:54.097Z,85.90
2023-05-24T03:58:23.654Z,85.80
2023-05-24T04:00:52.382Z,86.00
2023-05-24T04:03:21.386Z,85.80
2023-05-24T04:05:50.035Z,85.60
2023-05-24T04:08:18.753Z,85.50
2023-05-24T04:10:47.043Z,85.30
2023-05-24T04:13:17.079Z,85.50
2023-05-24T04:15:45.467Z,85.40
2023-05-24T04:18:14.055Z,85.20
2023-05-24T04:20:42.442Z,85.30
2023-05-24T04:23:11.586Z,85.20
2023-05-24T04:25:39.858Z,85.10
2023-05-24T04:28:09.312Z,85.20
2023-05-24T04:30:39.282Z,85.10
2023-05-24T04:33:08.408Z,85.00
2023-05-24T04:35:36.776Z,85.00
2023-05-24T04:38:05.833Z,85.10
2023-05-24T04:40:34.037Z,85.10
2023-05-24T04:43:02.832Z,85.10
2023-05-24T04:45:32.902Z,85.20
2023-05-24T04:48:02.920Z,85.10
2023-05-24T04:50:31.376Z,85.00
2023-05-24T04:53:00.007Z,84.90
2023-05-24T04:55:28.204Z,84.80
2023-05-24T04:57:57.132Z,84.90
2023-05-24T05:00:25.388Z,85.00
2023-05-24T05:02:54.088Z,84.70
2023-05-24T05:05:23.870Z,84.70
2023-05-24T05:07:52.519Z,84.80
2023-05-24T05:10:23.091Z,84.80
2023-05-24T05:12:52.473Z,84.50
2023-05-24T05:15:22.308Z,84.70
2023-05-24T05:17:51.180Z,84.50
2023-05-24T05:20:19.893Z,84.60
2023-05-24T05:22:50.792Z,84.70
2023-05-24T05:25:19.128Z,84.60
2023-05-24T05:27:47.524Z,84.50
2023-05-24T05:30:16.275Z,84.50
2023-05-24T05:32:45.125Z,84.30
2023-05-24T05:35:13.495Z,84.00
2023-05-24T05:37:42.454Z,84.10
2023-05-24T05:40:13.317Z,83.30
2023-05-24T05:42:42.214Z,83.20
2023-05-24T05:45:11.062Z,83.10
2023-05-24T05:47:39.667Z,82.90
2023-05-24T05:50:09.145Z,82.70
2023-05-24T05:52:37.837Z,82.50
2023-05-24T05:55:07.440Z,82.10
2023-05-24T05:57:37.509Z,81.80
2023-05-24T06:00:07.107Z,81.50
2023-05-24T06:02:40.231Z,81.30
2023-05-24T06:05:09.616Z,81.30
2023-05-24T06:07:38.829Z,81.10
2023-05-24T06:10:08.670Z,80.80
2023-05-24T06:12:40.530Z,80.30
2023-05-24T06:15:10.210Z,80.00
2023-05-24T06:17:38.789Z,80.00
2023-05-24T06:20:12.213Z,79.70
2023-05-24T06:22:42.677Z,79.40
2023-05-24T06:25:15.440Z,80.10
2023-05-24T06:27:45.314Z,79.00
2023-05-24T06:30:15.037Z,78.20
2023-05-24T06:32:43.684Z,77.90
2023-05-24T06:35:17.545Z,77.50
2023-05-24T06:37:46.156Z,77.20
2023-05-24T06:40:14.839Z,76.70
2023-05-24T06:42:44.451Z,76.60
2023-05-24T06:45:13.656Z,76.10
2023-05-24T06:47:42.040Z,75.90
2023-05-24T06:50:11.031Z,75.80
2023-05-24T06:52:39.602Z,75.90
2023-05-24T06:55:08.745Z,75.80
2023-05-24T06:57:36.925Z,75.60
2023-05-24T07:00:12.321Z,75.20
2023-05-24T07:02:40.637Z,75.10
2023-05-24T07:05:12.269Z,75.10
2023-05-24T07:07:41.226Z,74.60
2023-05-24T07:10:11.053Z,74.20
2023-05-24T07:12:39.980Z,73.90
2023-05-24T07:15:11.376Z,73.80
2023-05-24T07:17:40.114Z,74.30
2023-05-24T07:20:11.374Z,74.20
2023-05-24T07:22:39.589Z,74.30
2023-05-24T07:25:09.266Z,74.30
2023-05-24T07:27:37.753Z,74.60
2023-05-24T07:30:16.456Z,74.70
2023-05-24T07:32:53.814Z,75.00
2023-05-24T07:35:22.794Z,73.90
2023-05-24T07:37:51.018Z,73.40
2023-05-24T07:40:19.750Z,72.60
2023-05-24T07:42:48.331Z,71.90
2023-05-24T07:45:16.856Z,71.40
2023-05-24T07:47:45.437Z,71.00
2023-05-24T07:50:15.086Z,70.40
2023-05-24T07:52:43.239Z,70.80
2023-05-24T07:55:11.729Z,71.40
2023-05-24T07:57:39.901Z,71.30
2023-05-24T08:00:14.389Z,71.50
2023-05-24T08:02:44.275Z,71.40
2023-05-24T08:05:14.663Z,71.70
2023-05-24T08:07:43.068Z,71.90
2023-05-24T08:10:13.640Z,71.30
2023-05-24T08:12:42.236Z,71.20
2023-05-24T08:15:11.935Z,71.70
2023-05-24T08:17:40.684Z,71.30
2023-05-24T08:20:13.750Z,70.80
2023-05-24T08:22:44.048Z,70.00
2023-05-24T08:25:13.083Z,70.20
2023-05-24T08:27:41.463Z,70.40
2023-05-24T08:30:11.228Z,70.60
2023-05-24T08:32:39.851Z,69.90
2023-05-24T08:35:20.193Z,68.80
2023-05-24T08:37:51.664Z,69.10
2023-05-24T08:40:20.426Z,69.20
2023-05-24T08:42:51.155Z,69.40
2023-05-24T08:45:22.522Z,69.30
2023-05-24T08:47:52.812Z,67.20
2023-05-24T08:50:22.488Z,65.70
2023-05-24T08:52:54.040Z,64.80
2023-05-24T08:55:23.427Z,64.70
2023-05-24T08:57:53.150Z,64.60
2023-05-24T09:00:22.407Z,64.50
2023-05-24T09:02:51.819Z,64.50
2023-05-24T09:05:21.990Z,65.00
2023-05-24T09:07:53.642Z,65.60
2023-05-24T09:10:23.645Z,66.10
2023-05-24T09:12:57.989Z,66.80
2023-05-24T09:15:26.666Z,66.70
2023-05-24T09:17:55.113Z,66.90
2023-05-24T09:20:23.645Z,66.20
2023-05-24T09:22:54.786Z,65.30
2023-05-24T09:25:23.938Z,64.50
2023-05-24T09:27:53.554Z,63.80
2023-05-24T09:30:22.727Z,63.60
2023-05-24T09:32:58.755Z,64.00
2023-05-24T09:35:28.221Z,64.30
2023-05-24T09:37:59.925Z,64.70
2023-05-24T09:40:29.912Z,64.80
2023-05-24T09:43:05.859Z,64.70
2023-05-24T09:45:34.811Z,65.00
2023-05-24T09:48:05.510Z,65.10
2023-05-24T09:50:34.359Z,64.70
2023-05-24T09:53:04.264Z,64.40
2023-05-24T09:55:37.937Z,64.60
2023-05-24T09:58:09.013Z,64.50
2023-05-24T10:00:41.322Z,64.20
2023-05-24T10:03:12.605Z,64.10
2023-05-24T10:05:44.006Z,63.90
2023-05-24T10:08:14.464Z,63.30
2023-05-24T10:10:44.460Z,62.10
2023-05-24T10:13:15.901Z,60.30
2023-05-24T10:15:45.545Z,59.00
2023-05-24T10:18:15.062Z,58.60
2023-05-24T10:20:44.089Z,58.50
2023-05-24T10:23:20.605Z,58.40
2023-05-24T10:25:52.357Z,58.80
2023-05-24T10:28:22.648Z,58.30
2023-05-24T10:31:03.317Z,59.00
2023-05-24T10:33:33.672Z,59.30
2023-05-24T10:36:02.418Z,60.20
2023-05-24T10:38:32.039Z,59.10
2023-05-24T10:41:00.706Z,58.30
2023-05-24T10:43:29.177Z,58.20
2023-05-24T10:45:57.657Z,58.20
2023-05-24T10:48:37.571Z,57.80
2023-05-24T10:51:38.895Z,58.00
2023-05-24T10:54:17.597Z,57.90
2023-05-24T10:56:48.481Z,57.50
2023-05-24T10:59:31.663Z,57.80
2023-05-24T11:02:01.364Z,57.60
2023-05-24T11:04:34.248Z,57.50
2023-05-24T11:07:05.020Z,57.70
2023-05-24T11:09:35.071Z,57.50
2023-05-24T11:12:07.951Z,57.20
2023-05-24T11:14:39.448Z,57.10
2023-05-24T11:17:08.994Z,56.70
2023-05-24T11:19:39.381Z,56.70
2023-05-24T11:22:09.832Z,57.20
2023-05-24T11:24:39.553Z,56.90
2023-05-24T11:27:08.799Z,57.10
2023-05-24T11:29:42.576Z,56.80
2023-05-24T11:32:11.625Z,57.00
2023-05-24T11:34:40.635Z,56.90
2023-05-24T11:37:09.412Z,56.30
2023-05-24T11:39:39.808Z,55.80
2023-05-24T11:42:09.512Z,55.50
2023-05-24T11:44:39.194Z,55.40
2023-05-24T11:47:09.115Z,55.40
2023-05-24T11:49:37.680Z,55.20
2023-05-24T11:52:06.436Z,54.80
2023-05-24T11:54:35.058Z,54.40
2023-05-24T11:57:05.549Z,54.10
2023-05-24T11:59:37.798Z,54.10
2023-05-24T12:02:08.043Z,53.10
2023-05-24T12:04:36.743Z,52.90
2023-05-24T12:07:05.646Z,53.40
2023-05-24T12:09:34.421Z,54.20
2023-05-24T12:12:04.056Z,54.40
2023-05-24T12:14:34.923Z,55.30
2023-05-24T12:17:03.217Z,55.90
2023-05-24T12:19:34.800Z,56.40
2023-05-24T12:22:07.494Z,56.10
2023-05-24T12:24:38.822Z,55.70
2023-05-24T12:27:10.035Z,54.70
2023-05-24T12:29:41.236Z,54.40
2023-05-24T12:32:13.906Z,54.60
2023-05-24T12:34:43.979Z,54.70
2023-05-24T12:37:13.669Z,54.70
2023-05-24T12:39:44.527Z,54.40
2023-05-24T12:42:14.567Z,54.90
2023-05-24T12:44:45.099Z,53.70
2023-05-24T12:47:13.509Z,53.50
2023-05-24T12:49:42.070Z,53.30
2023-05-24T12:52:12.455Z,53.60
2023-05-24T12:54:41.136Z,53.30
2023-05-24T12:57:09.795Z,51.90
2023-05-24T12:59:39.729Z,51.20
2023-05-24T13:02:08.495Z,51.30
2023-05-24T13:04:37.145Z,50.90
2023-05-24T13:07:05.779Z,50.50
2023-05-24T13:09:34.366Z,50.40
2023-05-24T13:12:03.157Z,50.70
2023-05-24T13:14:31.811Z,50.90
2023-05-24T13:17:02.087Z,51.40
2023-05-24T13:19:30.710Z,51.60
2023-05-24T13:21:59.362Z,52.00
2023-05-24T13:24:29.119Z,51.70
2023-05-24T13:26:58.339Z,51.40
2023-05-24T13:29:39.324Z,50.50
2023-05-24T13:32:12.701Z,50.00
2023-05-24T13:34:41.305Z,50.50
2023-05-24T13:37:10.007Z,50.80
2023-05-24T13:39:39.274Z,50.90
2023-05-24T13:42:09.130Z,51.00
2023-05-24T13:44:37.899Z,50.90
2023-05-24T13:47:06.752Z,50.20
2023-05-24T13:49:37.908Z,50.40
2023-05-24T13:52:06.584Z,50.90
2023-05-24T13:54:35.953Z,50.80
2023-05-24T13:57:05.207Z,51.00
2023-05-24T13:59:34.363Z,51.60
2023-05-24T14:02:03.058Z,51.90
2023-05-24T14:04:31.814Z,52.40
2023-05-24T14:07:01.801Z,52.30
2023-05-24T14:09:30.478Z,52.30
2023-05-24T14:11:58.951Z,52.50
2023-05-24T14:16:58.791Z,52.60
2023-05-24T14:19:27.386Z,53.20
2023-05-24T14:21:56.145Z,53.20
2023-05-24T14:24:26.061Z,53.50
2023-05-24T14:26:54.649Z,53.60
2023-05-24T14:29:23.014Z,53.50
2023-05-24T14:31:51.726Z,53.70
2023-05-24T14:34:19.992Z,53.60
2023-05-24T14:36:48.779Z,53.30
2023-05-24T14:39:17.268Z,53.10
2023-05-24T14:41:47.370Z,53.10
2023-05-24T14:44:15.898Z,53.50
2023-05-24T14:46:44.817Z,53.80
2023-05-24T14:49:13.375Z,54.10
2023-05-24T14:51:42.089Z,54.00
2023-05-24T14:54:12.679Z,53.80
2023-05-24T14:56:41.698Z,53.80
2023-05-24T14:59:11.447Z,53.40
2023-05-24T15:01:40.223Z,53.20
2023-05-24T15:04:09.183Z,53.30
2023-05-24T15:06:38.774Z,53.40
2023-05-24T15:09:08.089Z,53.70
2023-05-24T15:11:37.770Z,53.80
2023-05-24T15:14:06.466Z,53.80
2023-05-24T15:16:36.377Z,54.00
2023-05-24T15:19:05.263Z,53.90
2023-05-24T15:21:33.609Z,53.80
2023-05-24T15:24:02.230Z,53.40
2023-05-24T15:26:30.670Z,53.60
2023-05-24T15:29:01.158Z,53.60
2023-05-24T15:31:29.862Z,53.40
2023-05-24T15:33:59.984Z,53.50
2023-05-24T15:36:28.631Z,53.40
2023-05-24T15:38:57.195Z,53.40
2023-05-24T15:41:25.430Z,53.60
2023-05-24T15:43:54.049Z,53.70
2023-05-24T15:46:23.187Z,53.90
2023-05-24T15:48:51.923Z,54.10
2023-05-24T15:52:01.614Z,54.30
2023-05-24T15:54:10.270Z,54.30
2023-05-24T15:56:38.842Z,54.20
2023-05-24T15:59:07.612Z,53.90
2023-05-24T16:01:37.128Z,54.10
2023-05-24T16:04:05.879Z,54.10
2023-05-24T16:06:36.687Z,54.20
2023-05-24T16:09:07.147Z,54.30
2023-05-24T16:11:35.766Z,54.50
2023-05-24T16:14:05.544Z,54.60
2023-05-24T16:16:33.880Z,54.80
2023-05-24T16:19:02.543Z,54.90
2023-05-24T16:21:31.163Z,55.00
2023-05-24T16:24:03.395Z,55.00
2023-05-24T16:26:32.182Z,55.10
2023-05-24T16:29:01.733Z,55.10
2023-05-24T16:31:31.896Z,55.20
2023-05-24T16:34:01.070Z,55.40
2023-05-24T16:36:30.006Z,55.40
2023-05-24T16:38:58.493Z,55.60
2023-05-24T16:41:34.580Z,55.70
2023-05-24T16:44:03.102Z,55.90
2023-05-24T16:46:31.628Z,56.10
2023-05-24T16:49:01.027Z,56.20
2023-05-24T16:51:29.584Z,56.50
2023-05-24T16:53:58.150Z,56.70
2023-05-24T16:56:27.735Z,56.90
2023-05-24T16:58:56.736Z,57.00
2023-05-24T17:01:25.338Z,57.10
2023-05-24T17:03:54.226Z,57.20
2023-05-24T17:06:22.583Z,57.40
2023-05-24T17:08:51.206Z,57.50
2023-05-24T17:11:19.913Z,57.60
2023-05-24T17:13:51.217Z,57.80
2023-05-24T17:16:19.498Z,58.00
2023-05-24T17:18:48.222Z,58.20
2023-05-24T17:21:16.716Z,58.30
2023-05-24T17:23:45.247Z,58.40
2023-05-24T17:26:15.447Z,58.50
2023-05-24T17:28:46.203Z,58.60
2023-05-24T17:31:16.823Z,58.70
2023-05-24T17:33:45.417Z,58.80
2023-05-24T17:36:14.366Z,58.90
2023-05-24T17:38:42.591Z,59.00
2023-05-24T17:41:11.793Z,59.10
2023-05-24T17:43:40.592Z,59.10
2023-05-24T17:46:10.306Z,59.10
2023-05-24T17:48:41.136Z,59.30
2023-05-24T17:51:11.604Z,59.40
2023-05-24T17:53:41.089Z,59.40
2023-05-24T17:56:10.064Z,59.50
2023-05-24T17:58:38.374Z,59.70
2023-05-24T18:01:08.624Z,59.80
2023-05-24T18:03:38.287Z,60.00
2023-05-24T18:06:08.827Z,60.20
2023-05-24T18:08:38.930Z,60.40
2023-05-24T18:11:09.555Z,60.60
2023-05-24T18:13:39.234Z,60.80
2023-05-24T18:16:07.950Z,61.00
2023-05-24T18:18:37.935Z,61.10
2023-05-24T18:21:09.559Z,61.30
2023-05-24T18:23:38.855Z,61.40
2023-05-24T18:26:12.091Z,61.70
2023-05-24T18:28:42.469Z,61.80
2023-05-24T18:31:11.426Z,62.10
2023-05-24T18:33:39.843Z,62.30
2023-05-24T18:36:10.540Z,62.60
2023-05-24T18:38:40.158Z,62.80
2023-05-24T18:41:10.156Z,63.10
2023-05-24T18:43:39.161Z,63.30
2023-05-24T18:46:08.955Z,63.50
2023-05-24T18:48:37.360Z,63.80
2023-05-24T18:51:06.626Z,64.00
2023-05-24T18:53:36.903Z,64.30
2023-05-24T18:56:05.866Z,64.50
2023-05-24T18:58:34.174Z,64.60
2023-05-24T19:01:02.738Z,64.80
2023-05-24T19:03:31.013Z,65.10
2023-05-24T19:05:59.787Z,65.30
2023-05-24T19:08:28.056Z,65.50
2023-05-24T19:10:58.098Z,65.80
2023-05-24T19:13:27.516Z,66.00
2023-05-24T19:15:57.906Z,66.10
2023-05-24T19:18:26.560Z,66.40
2023-05-24T19:20:54.919Z,66.70
2023-05-24T19:23:23.574Z,66.90
2023-05-24T19:25:52.199Z,67.20
2023-05-24T19:28:22.117Z,67.40
2023-05-24T19:30:50.608Z,67.50
2023-05-24T19:33:18.806Z,67.80
2023-05-24T19:35:47.033Z,68.00
2023-05-24T19:38:17.714Z,68.30
2023-05-24T19:40:46.632Z,68.50
2023-05-24T19:43:15.172Z,68.70
2023-05-24T19:45:45.366Z,68.90
2023-05-24T19:48:14.134Z,69.20
2023-05-24T19:50:42.787Z,69.40
2023-05-24T19:53:11.250Z,69.60
2023-05-24T19:55:39.763Z,69.70
2023-05-24T19:58:08.357Z,69.90
2023-05-24T20:00:36.827Z,70.30
2023-05-24T20:03:06.868Z,70.50
2023-05-24T20:05:35.526Z,70.80
2023-05-24T20:08:04.024Z,71.10
2023-05-24T20:10:35.655Z,71.30
2023-05-24T20:13:04.906Z,71.60
2023-05-24T20:15:33.526Z,71.70
2023-05-24T20:18:02.160Z,72.00
2023-05-24T20:20:32.463Z,72.10
2023-05-24T20:23:00.976Z,72.20
2023-05-24T20:25:29.330Z,72.40
2023-05-24T20:27:57.870Z,72.50
2023-05-24T20:30:26.758Z,72.90
2023-05-24T20:32:55.484Z,73.10
2023-05-24T20:35:24.107Z,73.30
2023-05-24T20:37:53.635Z,73.40
2023-05-24T20:40:23.979Z,73.60
2023-05-24T20:42:52.583Z,73.80
2023-05-24T20:45:21.502Z,74.00
2023-05-24T20:47:50.030Z,74.10
2023-05-24T20:50:18.729Z,74.30
2023-05-24T20:52:47.245Z,74.50
2023-05-24T20:55:18.780Z,74.60
2023-05-24T20:57:47.864Z,74.70
2023-05-24T21:00:16.753Z,74.80
2023-05-24T21:02:45.481Z,74.90
2023-05-24T21:05:13.743Z,75.20
2023-05-24T21:07:42.310Z,75.30
2023-05-24T21:10:12.861Z,75.40
2023-05-24T21:12:42.762Z,75.50
2023-05-24T21:15:11.578Z,75.80
2023-05-24T21:17:40.566Z,75.90
2023-05-24T21:20:09.537Z,76.20
2023-05-24T21:22:38.047Z,76.40
2023-05-24T21:25:07.834Z,76.60
2023-05-24T21:27:36.056Z,76.70
2023-05-24T21:30:06.219Z,76.90
2023-05-24T21:32:34.511Z,77.20
2023-05-24T21:35:03.061Z,77.40
2023-05-24T21:37:31.580Z,77.60
2023-05-24T21:40:00.106Z,77.90
2023-05-24T21:42:28.396Z,78.10
2023-05-24T21:44:57.005Z,78.30
2023-05-24T21:47:26.959Z,78.40
2023-05-24T21:49:55.810Z,78.50
2023-05-24T21:52:24.620Z,78.60
2023-05-24T21:54:53.111Z,78.70
2023-05-24T21:57:21.637Z,78.80
2023-05-24T21:59:50.333Z,78.90
2023-05-24T22:02:19.206Z,79.10
2023-05-24T22:04:49.573Z,80.10
2023-05-24T22:07:18.095Z,79.60
2023-05-24T22:09:46.948Z,79.80
2023-05-24T22:12:15.140Z,79.90
2023-05-24T22:14:43.813Z,80.10
2023-05-24T22:17:12.025Z,80.30
2023-05-24T22:19:41.269Z,80.70
2023-05-24T22:22:12.403Z,81.00
2023-05-24T22:24:41.015Z,81.00
2023-05-24T22:27:13.821Z,81.10
2023-05-24T22:29:42.364Z,81.40
2023-05-24T22:32:11.189Z,81.40
2023-05-24T22:34:39.768Z,81.70
2023-05-24T22:37:09.992Z,81.90
2023-05-24T22:39:38.239Z,82.00
2023-05-24T22:42:06.972Z,82.20
2023-05-24T22:44:35.118Z,82.40
2023-05-24T22:47:03.305Z,82.60
2023-05-24T22:49:34.157Z,82.60
2023-05-24T22:52:02.942Z,82.70
2023-05-24T22:54:32.556Z,82.70
2023-05-24T22:57:00.968Z,83.00
2023-05-24T22:59:32.426Z,83.30
2023-05-24T23:02:00.988Z,83.50
2023-05-24T23:04:30.093Z,83.60
2023-05-24T23:06:58.328Z,83.90
2023-05-24T23:09:35.251Z,84.00
2023-05-24T23:12:08.450Z,84.20
2023-05-24T23:14:39.332Z,84.30
2023-05-24T23:17:10.391Z,84.50
2023-05-24T23:19:42.655Z,84.60
2023-05-24T23:22:14.074Z,84.70
2023-05-24T23:24:43.353Z,84.80
2023-05-24T23:27:12.867Z,85.10
2023-05-24T23:29:41.435Z,85.20
2023-05-24T23:32:10.552Z,85.30
2023-05-24T23:34:39.618Z,85.50
2023-05-24T23:37:09.061Z,86.00
2023-05-24T23:39:37.579Z,86.10
2023-05-24T23:42:06.681Z,86.20
2023-05-24T23:44:36.352Z,86.40
2023-05-24T23:47:05.233Z,86.40
2023-05-24T23:49:33.792Z,86.50
2023-05-24T23:52:01.975Z,87.20
2023-05-24T23:54:30.159Z,86.60
2023-05-24T23:56:58.654Z,86.80
2023-05-24T23:59:26.849Z,87.20
